• Join FlightAware (Why Join?)
  • Login
  • US Flag 
12:51AM EDT


 

Airport Tracker/Info


-or-


 

Live Flight TrackerFlight Track Log ✈ N816BG ✈ 18-Jun-2014 ✈ KGRR - KACB

Flight Track Log - Related Links

Times and Time Zones

All times are in EDT time to prevent confusion due to time zone crossing. See the N816BG flight status page for this flight to view local times or setup timezone preferences in your user account.

Time Position Orientation Groundspeed Altitude Reporting Facility
EDT Latitude Longitude Course Direction KTS MPH feet Rate Location/Type
08:44AM 42.8211 -85.5006 11° North 221 254 3,200  Level Minneapolis Center
08:45AM 42.7786 -85.4433 135° Southeast 240 276 6,000 2,520 Climbing Chicago Center
08:46AM 42.7775 -85.3450 91° East 256 295 8,700 1,920 Climbing Chicago Center
08:47AM 42.7728 -85.2389 93° East 274 315 10,000 2,040 Climbing Chicago Center
08:48AM 42.7656 -85.0819 94° East 343 395 13,000 2,340 Climbing Chicago Center
08:49AM 42.7636 -84.9456 91° East 353 406 14,900 1,200 Climbing Chicago Center
08:50AM 42.9177 -85.5130 11° North  Level FlightAware Approximate
08:50AM 42.8031 -84.8781 51° Northeast 385 443 15,000  Level Chicago Center
08:51AM 42.9072 -84.8514 11° North 391 450 15,000  Level Cleveland Center
08:52AM 43.0114 -84.8325 North 384 442 15,000 120 Level Cleveland Center
08:53AM 43.1028 -84.8689 344° North 344 396 15,300  Climbing Cleveland Center
08:54AM 43.1903 -84.8872 351° North 323 372 15,000 -180 Descending Cleveland Center
08:55AM 43.2789 -84.9011 353° North 323 372 15,000  Level Cleveland Center
08:56AM 43.3847 -84.9203 353° North 322 371 15,000  Level Cleveland Center
08:57AM 43.4733 -84.9361 353° North 321 369 15,000  Level Cleveland Center
08:58AM 43.5603 -84.9492 354° North 318 366 15,000  Level Cleveland Center
08:59AM 43.6483 -84.9653 352° North 319 367 15,000  Level Cleveland Center
09:00AM 43.6997 -84.9725 354° North 318 366 15,000  Level Minneapolis Center
09:01AM 43.7725 -85.0192 335° Northwest 306 352 15,000  Level Minneapolis Center
09:02AM 43.8511 -85.0536 342° North 299 344 15,000 -780 Level Minneapolis Center
09:03AM 43.9500 -85.0786 350° North 300 345 13,500 -1,380 Descending Minneapolis Center
09:04AM 44.0333 -85.0969 351° North 300 345 12,200 -1,260 Descending Minneapolis Center
09:05AM 44.1147 -85.1153 351° North 299 344 11,000 -1,200 Descending Minneapolis Center
09:06AM 44.1956 -85.1342 350° North 298 343 9,800 -1,260 Descending Minneapolis Center
09:07AM 44.2700 -85.1514 351° North 280 322 8,500 -1,200 Descending Minneapolis Center
09:08AM 44.3408 -85.1694 350° North 266 306 7,400 -1,140 Descending Minneapolis Center
09:09AM 44.4147 -85.1864 351° North 266 306 6,200 -840 Descending Minneapolis Center
09:10AM 44.5064 -85.2083 350° North 274 315 5,700 -1,080 Descending Minneapolis Center
09:11AM 44.5836 -85.2269 350° North 277 319 4,100 -1,200 Descending Minneapolis Center
09:12AM 44.6606 -85.2447 351° North 282 325 3,300 -360 Descending Minneapolis Center
09:13AM 44.7231 -85.2583 351° North 258 297 3,400  Climbing Minneapolis Center
09:14AM 44.7828 -85.2742 349° North 235 270 3,400 -300 Level Minneapolis Center
09:15AM 44.8436 -85.2631 North 245 282 2,900 -660 Descending Minneapolis Center
09:16AM 44.9125 -85.2331 17° North 230 265 2,100 -780 Descending Minneapolis Center
09:18AM 44.9833 -85.1833 353° North  Level FlightAware Approximate
09:25AM 44.9886 -85.1984 296° West  Level Estimated